sensor_id;sensor_type;location;lat;lon;timestamp;temperature;humidity
67752;DHT22;54551;51.068;5.826;2023-05-07T00:00:05;15.30;99.90
67752;DHT22;54551;51.068;5.826;2023-05-07T00:02:34;15.30;99.90
67752;DHT22;54551;51.068;5.826;2023-05-07T00:05:01;15.40;99.90
67752;DHT22;54551;51.068;5.826;2023-05-07T00:07:28;15.40;99.90
67752;DHT22;54551;51.068;5.826;2023-05-07T00:09:53;15.40;99.90
67752;DHT22;54551;51.068;5.826;2023-05-07T00:12:20;15.40;99.90
67752;DHT22;54551;51.068;5.826;2023-05-07T00:14:46;15.50;99.90
67752;DHT22;54551;51.068;5.826;2023-05-07T00:17:12;15.50;99.90
67752;DHT22;54551;51.068;5.826;2023-05-07T00:19:38;15.50;99.90
67752;DHT22;54551;51.068;5.826;2023-05-07T00:22:04;15.60;99.90
67752;DHT22;54551;51.068;5.826;2023-05-07T00:24:29;15.60;99.90
67752;DHT22;54551;51.068;5.826;2023-05-07T00:26:55;15.60;99.90
67752;DHT22;54551;51.068;5.826;2023-05-07T00:29:23;15.70;99.90
67752;DHT22;54551;51.068;5.826;2023-05-07T00:31:49;15.70;99.90
67752;DHT22;54551;51.068;5.826;2023-05-07T00:34:16;15.70;99.90
67752;DHT22;54551;51.068;5.826;2023-05-07T00:36:42;15.80;99.90
67752;DHT22;54551;51.068;5.826;2023-05-07T00:39:08;15.80;99.90
67752;DHT22;54551;51.068;5.826;2023-05-07T00:41:34;15.80;99.90
67752;DHT22;54551;51.068;5.826;2023-05-07T00:44:00;15.80;99.90
67752;DHT22;54551;51.068;5.826;2023-05-07T00:46:28;15.80;99.90
67752;DHT22;54551;51.068;5.826;2023-05-07T00:48:57;15.80;99.90
67752;DHT22;54551;51.068;5.826;2023-05-07T00:51:25;15.80;99.90
67752;DHT22;54551;51.068;5.826;2023-05-07T00:53:55;15.80;99.90
67752;DHT22;54551;51.068;5.826;2023-05-07T00:56:21;15.80;99.90
67752;DHT22;54551;51.068;5.826;2023-05-07T00:58:48;15.80;99.90
67752;DHT22;54551;51.068;5.826;2023-05-07T01:01:14;15.80;99.90
67752;DHT22;54551;51.068;5.826;2023-05-07T01:03:42;15.60;99.90
67752;DHT22;54551;51.068;5.826;2023-05-07T01:06:10;15.40;99.90
67752;DHT22;54551;51.068;5.826;2023-05-07T01:08:40;15.40;99.90
67752;DHT22;54551;51.068;5.826;2023-05-07T01:11:07;15.40;99.90
67752;DHT22;54551;51.068;5.826;2023-05-07T01:13:35;15.40;99.90
67752;DHT22;54551;51.068;5.826;2023-05-07T01:16:02;15.40;99.90
67752;DHT22;54551;51.068;5.826;2023-05-07T01:18:28;15.40;99.90
67752;DHT22;54551;51.068;5.826;2023-05-07T01:20:58;15.50;99.90
67752;DHT22;54551;51.068;5.826;2023-05-07T01:23:25;15.50;99.90
67752;DHT22;54551;51.068;5.826;2023-05-07T01:25:53;15.50;99.90
67752;DHT22;54551;51.068;5.826;2023-05-07T01:28:20;15.50;99.90
67752;DHT22;54551;51.068;5.826;2023-05-07T01:30:51;15.50;99.90
67752;DHT22;54551;51.068;5.826;2023-05-07T01:33:20;15.40;99.90
67752;DHT22;54551;51.068;5.826;2023-05-07T01:35:50;15.40;99.90
67752;DHT22;54551;51.068;5.826;2023-05-07T01:38:18;15.30;99.90
67752;DHT22;54551;51.068;5.826;2023-05-07T01:40:45;15.30;99.90
67752;DHT22;54551;51.068;5.826;2023-05-07T01:43:11;15.20;99.90
67752;DHT22;54551;51.068;5.826;2023-05-07T01:45:38;15.10;99.90
67752;DHT22;54551;51.068;5.826;2023-05-07T01:48:07;15.10;99.90
67752;DHT22;54551;51.068;5.826;2023-05-07T01:50:34;15.00;99.90
67752;DHT22;54551;51.068;5.826;2023-05-07T01:53:01;15.00;99.90
67752;DHT22;54551;51.068;5.826;2023-05-07T01:55:28;14.90;99.90
67752;DHT22;54551;51.068;5.826;2023-05-07T01:57:54;14.90;99.90
67752;DHT22;54551;51.068;5.826;2023-05-07T02:00:20;14.80;99.90
67752;DHT22;54551;51.068;5.826;2023-05-07T02:02:47;14.80;99.90
67752;DHT22;54551;51.068;5.826;2023-05-07T02:05:28;14.80;99.90
67752;DHT22;54551;51.068;5.826;2023-05-07T02:07:59;14.80;99.90
67752;DHT22;54551;51.068;5.826;2023-05-07T02:10:27;14.80;99.90
67752;DHT22;54551;51.068;5.826;2023-05-07T02:12:53;14.70;99.90
67752;DHT22;54551;51.068;5.826;2023-05-07T02:15:19;14.70;99.90
67752;DHT22;54551;51.068;5.826;2023-05-07T02:18:04;14.70;99.90
67752;DHT22;54551;51.068;5.826;2023-05-07T02:20:32;14.80;99.90
67752;DHT22;54551;51.068;5.826;2023-05-07T02:22:58;14.80;99.90
67752;DHT22;54551;51.068;5.826;2023-05-07T02:25:26;14.90;99.90
67752;DHT22;54551;51.068;5.826;2023-05-07T02:27:52;14.90;99.90
67752;DHT22;54551;51.068;5.826;2023-05-07T02:30:22;15.00;99.90
67752;DHT22;54551;51.068;5.826;2023-05-07T02:32:51;15.00;99.90
67752;DHT22;54551;51.068;5.826;2023-05-07T02:35:17;15.00;99.90
67752;DHT22;54551;51.068;5.826;2023-05-07T02:37:43;15.10;99.90
67752;DHT22;54551;51.068;5.826;2023-05-07T02:40:09;15.10;99.90
67752;DHT22;54551;51.068;5.826;2023-05-07T02:42:36;15.10;99.90
67752;DHT22;54551;51.068;5.826;2023-05-07T02:45:02;15.20;99.90
67752;DHT22;54551;51.068;5.826;2023-05-07T02:47:29;15.20;99.90
67752;DHT22;54551;51.068;5.826;2023-05-07T02:49:57;15.20;99.90
67752;DHT22;54551;51.068;5.826;2023-05-07T02:52:23;15.30;99.90
67752;DHT22;54551;51.068;5.826;2023-05-07T02:54:49;15.30;99.90
67752;DHT22;54551;51.068;5.826;2023-05-07T02:57:15;15.30;99.90
67752;DHT22;54551;51.068;5.826;2023-05-07T02:59:41;15.30;99.90
67752;DHT22;54551;51.068;5.826;2023-05-07T03:02:07;15.30;99.90
67752;DHT22;54551;51.068;5.826;2023-05-07T03:04:33;15.30;99.90
67752;DHT22;54551;51.068;5.826;2023-05-07T03:06:59;15.30;99.90
67752;DHT22;54551;51.068;5.826;2023-05-07T03:09:25;15.30;99.90
67752;DHT22;54551;51.068;5.826;2023-05-07T03:11:51;15.30;99.90
67752;DHT22;54551;51.068;5.826;2023-05-07T03:14:17;15.30;99.90
67752;DHT22;54551;51.068;5.826;2023-05-07T03:16:43;15.20;99.90
67752;DHT22;54551;51.068;5.826;2023-05-07T03:19:09;15.10;99.90
67752;DHT22;54551;51.068;5.826;2023-05-07T03:21:35;15.00;99.90
67752;DHT22;54551;51.068;5.826;2023-05-07T03:24:01;15.00;99.90
67752;DHT22;54551;51.068;5.826;2023-05-07T03:26:27;14.90;99.90
67752;DHT22;54551;51.068;5.826;2023-05-07T03:28:54;14.90;99.90
67752;DHT22;54551;51.068;5.826;2023-05-07T03:31:21;14.80;99.90
67752;DHT22;54551;51.068;5.826;2023-05-07T03:33:56;14.80;99.90
67752;DHT22;54551;51.068;5.826;2023-05-07T03:36:23;14.80;99.90
67752;DHT22;54551;51.068;5.826;2023-05-07T03:38:50;14.80;99.90
67752;DHT22;54551;51.068;5.826;2023-05-07T03:41:19;14.80;99.90
67752;DHT22;54551;51.068;5.826;2023-05-07T03:43:46;14.80;99.90
67752;DHT22;54551;51.068;5.826;2023-05-07T03:46:12;14.80;99.90
67752;DHT22;54551;51.068;5.826;2023-05-07T03:48:38;14.80;99.90
67752;DHT22;54551;51.068;5.826;2023-05-07T03:51:05;14.80;99.90
67752;DHT22;54551;51.068;5.826;2023-05-07T03:53:33;14.70;99.90
67752;DHT22;54551;51.068;5.826;2023-05-07T03:55:59;14.70;99.90
67752;DHT22;54551;51.068;5.826;2023-05-07T03:58:25;14.70;99.90
67752;DHT22;54551;51.068;5.826;2023-05-07T04:00:53;14.70;99.90
67752;DHT22;54551;51.068;5.826;2023-05-07T04:03:25;14.70;99.90
67752;DHT22;54551;51.068;5.826;2023-05-07T04:05:52;14.70;99.90
67752;DHT22;54551;51.068;5.826;2023-05-07T04:08:18;14.50;99.90
67752;DHT22;54551;51.068;5.826;2023-05-07T04:10:47;14.30;99.90
67752;DHT22;54551;51.068;5.826;2023-05-07T04:13:13;14.30;99.90
67752;DHT22;54551;51.068;5.826;2023-05-07T04:15:39;14.40;99.90
67752;DHT22;54551;51.068;5.826;2023-05-07T04:18:10;14.40;99.90
67752;DHT22;54551;51.068;5.826;2023-05-07T04:20:37;14.40;99.90
67752;DHT22;54551;51.068;5.826;2023-05-07T04:23:05;14.50;99.90
67752;DHT22;54551;51.068;5.826;2023-05-07T04:25:31;14.50;99.90
67752;DHT22;54551;51.068;5.826;2023-05-07T04:28:06;14.50;99.90
67752;DHT22;54551;51.068;5.826;2023-05-07T04:30:32;14.60;99.90
67752;DHT22;54551;51.068;5.826;2023-05-07T04:32:58;14.60;99.90
67752;DHT22;54551;51.068;5.826;2023-05-07T04:35:27;14.70;99.90
67752;DHT22;54551;51.068;5.826;2023-05-07T04:37:53;14.80;99.90
67752;DHT22;54551;51.068;5.826;2023-05-07T04:40:19;14.90;99.90
67752;DHT22;54551;51.068;5.826;2023-05-07T04:42:45;15.00;99.90
67752;DHT22;54551;51.068;5.826;2023-05-07T04:45:12;15.10;99.90
67752;DHT22;54551;51.068;5.826;2023-05-07T04:47:42;15.10;99.90
67752;DHT22;54551;51.068;5.826;2023-05-07T04:50:08;15.30;99.90
67752;DHT22;54551;51.068;5.826;2023-05-07T04:52:35;15.30;99.90
67752;DHT22;54551;51.068;5.826;2023-05-07T04:55:02;15.40;99.90
67752;DHT22;54551;51.068;5.826;2023-05-07T04:57:34;15.40;99.90
67752;DHT22;54551;51.068;5.826;2023-05-07T05:00:00;15.50;99.90
67752;DHT22;54551;51.068;5.826;2023-05-07T05:02:26;15.60;99.90
67752;DHT22;54551;51.068;5.826;2023-05-07T05:04:51;15.60;99.90
67752;DHT22;54551;51.068;5.826;2023-05-07T05:07:18;15.70;99.90
67752;DHT22;54551;51.068;5.826;2023-05-07T05:09:44;15.80;99.90
67752;DHT22;54551;51.068;5.826;2023-05-07T05:12:10;15.90;99.90
67752;DHT22;54551;51.068;5.826;2023-05-07T05:14:37;16.00;99.90
67752;DHT22;54551;51.068;5.826;2023-05-07T05:17:04;16.10;99.90
67752;DHT22;54551;51.068;5.826;2023-05-07T05:19:29;16.10;99.90
67752;DHT22;54551;51.068;5.826;2023-05-07T05:21:55;16.20;99.90
67752;DHT22;54551;51.068;5.826;2023-05-07T05:24:22;16.20;99.90
67752;DHT22;54551;51.068;5.826;2023-05-07T05:26:48;16.30;99.90
67752;DHT22;54551;51.068;5.826;2023-05-07T05:29:14;16.30;99.90
67752;DHT22;54551;51.068;5.826;2023-05-07T05:31:41;16.30;99.90
67752;DHT22;54551;51.068;5.826;2023-05-07T05:34:07;16.40;99.90
67752;DHT22;54551;51.068;5.826;2023-05-07T05:36:34;16.40;99.90
67752;DHT22;54551;51.068;5.826;2023-05-07T05:39:01;16.30;99.90
67752;DHT22;54551;51.068;5.826;2023-05-07T05:41:27;16.30;99.90
67752;DHT22;54551;51.068;5.826;2023-05-07T05:43:53;16.30;99.90
67752;DHT22;54551;51.068;5.826;2023-05-07T05:46:19;16.30;99.90
67752;DHT22;54551;51.068;5.826;2023-05-07T05:48:46;16.50;99.90
67752;DHT22;54551;51.068;5.826;2023-05-07T05:51:12;16.50;99.90
67752;DHT22;54551;51.068;5.826;2023-05-07T05:53:38;16.60;99.90
67752;DHT22;54551;51.068;5.826;2023-05-07T05:56:06;16.70;99.90
67752;DHT22;54551;51.068;5.826;2023-05-07T05:58:33;16.70;99.90
67752;DHT22;54551;51.068;5.826;2023-05-07T06:01:02;16.70;99.90
67752;DHT22;54551;51.068;5.826;2023-05-07T06:03:29;16.50;99.90
67752;DHT22;54551;51.068;5.826;2023-05-07T06:05:57;16.60;99.90
67752;DHT22;54551;51.068;5.826;2023-05-07T06:08:23;16.50;99.90
67752;DHT22;54551;51.068;5.826;2023-05-07T06:10:50;16.60;99.90
67752;DHT22;54551;51.068;5.826;2023-05-07T06:13:16;16.50;99.90
67752;DHT22;54551;51.068;5.826;2023-05-07T06:15:42;16.60;99.90
67752;DHT22;54551;51.068;5.826;2023-05-07T06:18:10;16.70;99.90
67752;DHT22;54551;51.068;5.826;2023-05-07T06:20:36;16.80;99.90
67752;DHT22;54551;51.068;5.826;2023-05-07T06:23:05;16.90;99.90
67752;DHT22;54551;51.068;5.826;2023-05-07T06:25:33;17.10;99.90
67752;DHT22;54551;51.068;5.826;2023-05-07T06:27:59;17.20;99.90
67752;DHT22;54551;51.068;5.826;2023-05-07T06:30:25;17.40;99.90
67752;DHT22;54551;51.068;5.826;2023-05-07T06:32:53;17.50;99.90
67752;DHT22;54551;51.068;5.826;2023-05-07T06:35:19;17.60;99.90
67752;DHT22;54551;51.068;5.826;2023-05-07T06:37:45;17.70;99.90
67752;DHT22;54551;51.068;5.826;2023-05-07T06:40:19;17.80;99.90
67752;DHT22;54551;51.068;5.826;2023-05-07T06:42:46;17.80;99.90
67752;DHT22;54551;51.068;5.826;2023-05-07T06:45:22;18.00;99.90
67752;DHT22;54551;51.068;5.826;2023-05-07T06:47:49;17.90;99.90
67752;DHT22;54551;51.068;5.826;2023-05-07T06:50:15;17.90;99.90
67752;DHT22;54551;51.068;5.826;2023-05-07T06:52:43;18.00;99.90
67752;DHT22;54551;51.068;5.826;2023-05-07T06:55:10;18.20;99.90
67752;DHT22;54551;51.068;5.826;2023-05-07T06:57:38;18.10;99.90
67752;DHT22;54551;51.068;5.826;2023-05-07T07:00:05;18.10;99.90
67752;DHT22;54551;51.068;5.826;2023-05-07T07:02:41;18.30;99.90
67752;DHT22;54551;51.068;5.826;2023-05-07T07:05:08;18.50;99.90
67752;DHT22;54551;51.068;5.826;2023-05-07T07:07:34;18.50;99.90
67752;DHT22;54551;51.068;5.826;2023-05-07T07:10:00;18.50;99.90
67752;DHT22;54551;51.068;5.826;2023-05-07T07:12:28;18.40;99.90
67752;DHT22;54551;51.068;5.826;2023-05-07T07:14:55;18.40;99.90
67752;DHT22;54551;51.068;5.826;2023-05-07T07:17:22;18.60;99.90
67752;DHT22;54551;51.068;5.826;2023-05-07T07:19:48;18.80;99.90
67752;DHT22;54551;51.068;5.826;2023-05-07T07:22:14;19.00;99.90
67752;DHT22;54551;51.068;5.826;2023-05-07T07:24:40;19.20;99.90
67752;DHT22;54551;51.068;5.826;2023-05-07T07:27:09;19.50;99.90
67752;DHT22;54551;51.068;5.826;2023-05-07T07:29:35;19.50;99.90
67752;DHT22;54551;51.068;5.826;2023-05-07T07:32:01;19.70;99.90
67752;DHT22;54551;51.068;5.826;2023-05-07T07:34:28;19.90;99.90
67752;DHT22;54551;51.068;5.826;2023-05-07T07:36:54;20.10;99.90
67752;DHT22;54551;51.068;5.826;2023-05-07T07:39:20;20.30;99.90
67752;DHT22;54551;51.068;5.826;2023-05-07T07:41:49;20.50;99.90
67752;DHT22;54551;51.068;5.826;2023-05-07T07:44:16;20.70;99.90
67752;DHT22;54551;51.068;5.826;2023-05-07T07:46:48;20.90;99.90
67752;DHT22;54551;51.068;5.826;2023-05-07T07:49:14;21.00;99.90
67752;DHT22;54551;51.068;5.826;2023-05-07T07:51:41;21.40;99.90
67752;DHT22;54551;51.068;5.826;2023-05-07T07:54:09;21.80;99.90
67752;DHT22;54551;51.068;5.826;2023-05-07T07:56:35;22.20;99.90
67752;DHT22;54551;51.068;5.826;2023-05-07T07:59:03;22.60;99.90
67752;DHT22;54551;51.068;5.826;2023-05-07T08:01:30;23.20;99.90
67752;DHT22;54551;51.068;5.826;2023-05-07T08:03:57;23.50;99.90
67752;DHT22;54551;51.068;5.826;2023-05-07T08:06:27;23.90;99.90
67752;DHT22;54551;51.068;5.826;2023-05-07T08:08:53;24.40;99.90
67752;DHT22;54551;51.068;5.826;2023-05-07T08:11:19;25.30;99.90
67752;DHT22;54551;51.068;5.826;2023-05-07T08:13:46;26.00;99.90
67752;DHT22;54551;51.068;5.826;2023-05-07T08:16:12;26.60;99.90
67752;DHT22;54551;51.068;5.826;2023-05-07T08:18:38;27.20;99.90
67752;DHT22;54551;51.068;5.826;2023-05-07T08:21:04;27.50;99.90
67752;DHT22;54551;51.068;5.826;2023-05-07T08:23:31;27.80;99.90
67752;DHT22;54551;51.068;5.826;2023-05-07T08:25:57;28.00;99.90
67752;DHT22;54551;51.068;5.826;2023-05-07T08:28:24;28.00;99.90
67752;DHT22;54551;51.068;5.826;2023-05-07T08:30:50;28.30;99.90
67752;DHT22;54551;51.068;5.826;2023-05-07T08:33:16;28.50;99.90
67752;DHT22;54551;51.068;5.826;2023-05-07T08:35:43;27.70;99.90
67752;DHT22;54551;51.068;5.826;2023-05-07T08:38:10;27.30;99.90
67752;DHT22;54551;51.068;5.826;2023-05-07T08:40:38;27.40;99.90
67752;DHT22;54551;51.068;5.826;2023-05-07T08:43:08;27.40;99.90
67752;DHT22;54551;51.068;5.826;2023-05-07T08:45:39;27.40;99.90
67752;DHT22;54551;51.068;5.826;2023-05-07T08:48:15;27.20;99.90
67752;DHT22;54551;51.068;5.826;2023-05-07T08:50:43;27.10;99.90
67752;DHT22;54551;51.068;5.826;2023-05-07T08:53:10;27.10;99.90
67752;DHT22;54551;51.068;5.826;2023-05-07T08:55:36;26.90;99.90
67752;DHT22;54551;51.068;5.826;2023-05-07T08:58:03;26.70;99.90
67752;DHT22;54551;51.068;5.826;2023-05-07T09:00:30;26.40;99.90
67752;DHT22;54551;51.068;5.826;2023-05-07T09:02:58;26.10;99.90
67752;DHT22;54551;51.068;5.826;2023-05-07T09:05:25;25.80;99.90
67752;DHT22;54551;51.068;5.826;2023-05-07T09:07:52;25.10;99.90
67752;DHT22;54551;51.068;5.826;2023-05-07T09:10:20;24.70;99.90
67752;DHT22;54551;51.068;5.826;2023-05-07T09:12:47;24.70;99.90
67752;DHT22;54551;51.068;5.826;2023-05-07T09:15:14;24.70;99.90
67752;DHT22;54551;51.068;5.826;2023-05-07T09:17:41;24.60;99.90
67752;DHT22;54551;51.068;5.826;2023-05-07T09:20:08;24.60;99.90
67752;DHT22;54551;51.068;5.826;2023-05-07T09:22:36;24.30;99.90
67752;DHT22;54551;51.068;5.826;2023-05-07T09:25:07;24.30;99.90
67752;DHT22;54551;51.068;5.826;2023-05-07T09:27:36;24.40;99.90
67752;DHT22;54551;51.068;5.826;2023-05-07T09:30:09;24.40;99.90
67752;DHT22;54551;51.068;5.826;2023-05-07T09:32:37;24.20;99.90
67752;DHT22;54551;51.068;5.826;2023-05-07T09:35:15;24.10;99.90
67752;DHT22;54551;51.068;5.826;2023-05-07T09:37:43;23.70;99.90
67752;DHT22;54551;51.068;5.826;2023-05-07T09:40:23;23.10;99.90
67752;DHT22;54551;51.068;5.826;2023-05-07T09:42:51;23.30;99.90
67752;DHT22;54551;51.068;5.826;2023-05-07T09:45:37;23.40;99.90
67752;DHT22;54551;51.068;5.826;2023-05-07T09:48:05;23.80;99.90
67752;DHT22;54551;51.068;5.826;2023-05-07T09:50:36;24.50;99.90
67752;DHT22;54551;51.068;5.826;2023-05-07T09:53:03;25.10;99.90
67752;DHT22;54551;51.068;5.826;2023-05-07T09:55:31;24.90;99.90
67752;DHT22;54551;51.068;5.826;2023-05-07T09:57:57;24.70;99.90
67752;DHT22;54551;51.068;5.826;2023-05-07T10:00:27;24.60;99.90
67752;DHT22;54551;51.068;5.826;2023-05-07T10:03:03;25.30;99.90
67752;DHT22;54551;51.068;5.826;2023-05-07T10:05:42;25.40;99.90
67752;DHT22;54551;51.068;5.826;2023-05-07T10:08:10;25.50;99.90
67752;DHT22;54551;51.068;5.826;2023-05-07T10:10:38;25.70;99.90
67752;DHT22;54551;51.068;5.826;2023-05-07T10:13:09;25.50;99.90
67752;DHT22;54551;51.068;5.826;2023-05-07T10:15:38;25.90;99.90
67752;DHT22;54551;51.068;5.826;2023-05-07T10:18:06;26.30;99.90
67752;DHT22;54551;51.068;5.826;2023-05-07T10:20:36;27.10;99.90
67752;DHT22;54551;51.068;5.826;2023-05-07T10:23:05;27.50;99.90
67752;DHT22;54551;51.068;5.826;2023-05-07T10:25:39;26.50;99.90
67752;DHT22;54551;51.068;5.826;2023-05-07T10:28:14;25.70;99.90
67752;DHT22;54551;51.068;5.826;2023-05-07T10:33:40;25.30;99.90
67752;DHT22;54551;51.068;5.826;2023-05-07T10:36:09;25.60;99.90
67752;DHT22;54551;51.068;5.826;2023-05-07T10:38:36;25.40;99.90
67752;DHT22;54551;51.068;5.826;2023-05-07T10:41:02;24.70;99.90
67752;DHT22;54551;51.068;5.826;2023-05-07T10:43:43;24.80;99.90
67752;DHT22;54551;51.068;5.826;2023-05-07T10:46:20;24.80;99.90
67752;DHT22;54551;51.068;5.826;2023-05-07T10:49:09;24.80;99.90
67752;DHT22;54551;51.068;5.826;2023-05-07T10:51:45;24.80;99.90
67752;DHT22;54551;51.068;5.826;2023-05-07T10:54:24;24.00;99.90
67752;DHT22;54551;51.068;5.826;2023-05-07T10:59:54;23.90;99.90
67752;DHT22;54551;51.068;5.826;2023-05-07T11:05:29;23.60;99.90
67752;DHT22;54551;51.068;5.826;2023-05-07T11:08:12;23.90;99.90
67752;DHT22;54551;51.068;5.826;2023-05-07T11:11:00;24.10;99.90
67752;DHT22;54551;51.068;5.826;2023-05-07T11:13:49;24.10;99.90
67752;DHT22;54551;51.068;5.826;2023-05-07T11:16:24;23.60;99.90
67752;DHT22;54551;51.068;5.826;2023-05-07T11:18:59;23.70;99.90
67752;DHT22;54551;51.068;5.826;2023-05-07T11:21:38;23.50;99.90
67752;DHT22;54551;51.068;5.826;2023-05-07T11:24:27;23.40;99.90
67752;DHT22;54551;51.068;5.826;2023-05-07T11:26:57;23.50;99.90
67752;DHT22;54551;51.068;5.826;2023-05-07T11:29:25;23.50;99.90
67752;DHT22;54551;51.068;5.826;2023-05-07T11:32:13;23.50;99.90
67752;DHT22;54551;51.068;5.826;2023-05-07T11:34:54;23.50;99.90
67752;DHT22;54551;51.068;5.826;2023-05-07T11:37:22;23.40;99.90
67752;DHT22;54551;51.068;5.826;2023-05-07T11:40:04;23.40;99.90
67752;DHT22;54551;51.068;5.826;2023-05-07T11:42:32;23.40;99.90
67752;DHT22;54551;51.068;5.826;2023-05-07T11:44:59;23.40;99.90
67752;DHT22;54551;51.068;5.826;2023-05-07T11:47:26;23.30;99.90
67752;DHT22;54551;51.068;5.826;2023-05-07T11:49:55;23.30;99.90
67752;DHT22;54551;51.068;5.826;2023-05-07T11:52:22;23.10;99.90
67752;DHT22;54551;51.068;5.826;2023-05-07T11:54:53;22.70;99.90
67752;DHT22;54551;51.068;5.826;2023-05-07T11:57:19;22.40;99.90
67752;DHT22;54551;51.068;5.826;2023-05-07T11:59:45;22.00;99.90
67752;DHT22;54551;51.068;5.826;2023-05-07T12:02:17;21.70;99.90
67752;DHT22;54551;51.068;5.826;2023-05-07T12:04:43;21.50;99.90
67752;DHT22;54551;51.068;5.826;2023-05-07T12:07:13;21.20;99.90
67752;DHT22;54551;51.068;5.826;2023-05-07T12:09:43;21.10;99.90
67752;DHT22;54551;51.068;5.826;2023-05-07T12:12:10;20.90;99.90
67752;DHT22;54551;51.068;5.826;2023-05-07T12:14:40;20.80;99.90
67752;DHT22;54551;51.068;5.826;2023-05-07T12:17:07;20.70;99.90
67752;DHT22;54551;51.068;5.826;2023-05-07T12:19:35;20.60;99.90
67752;DHT22;54551;51.068;5.826;2023-05-07T12:22:02;20.60;99.90
67752;DHT22;54551;51.068;5.826;2023-05-07T12:24:30;20.60;99.90
67752;DHT22;54551;51.068;5.826;2023-05-07T12:27:07;20.70;99.90
67752;DHT22;54551;51.068;5.826;2023-05-07T12:29:32;20.80;99.90
67752;DHT22;54551;51.068;5.826;2023-05-07T12:31:59;20.80;99.90
67752;DHT22;54551;51.068;5.826;2023-05-07T12:34:24;20.90;99.90
67752;DHT22;54551;51.068;5.826;2023-05-07T12:36:50;21.00;99.90
67752;DHT22;54551;51.068;5.826;2023-05-07T12:39:16;21.10;99.90
67752;DHT22;54551;51.068;5.826;2023-05-07T12:41:56;21.20;99.90
67752;DHT22;54551;51.068;5.826;2023-05-07T12:44:28;21.40;99.90
67752;DHT22;54551;51.068;5.826;2023-05-07T12:46:55;21.50;99.90
67752;DHT22;54551;51.068;5.826;2023-05-07T12:49:23;21.70;99.90
67752;DHT22;54551;51.068;5.826;2023-05-07T12:51:49;21.90;99.90
67752;DHT22;54551;51.068;5.826;2023-05-07T12:54:31;22.20;99.90
67752;DHT22;54551;51.068;5.826;2023-05-07T12:57:10;22.50;99.90
67752;DHT22;54551;51.068;5.826;2023-05-07T12:59:40;22.70;99.90
67752;DHT22;54551;51.068;5.826;2023-05-07T13:02:08;22.90;99.90
67752;DHT22;54551;51.068;5.826;2023-05-07T13:04:35;23.10;99.90
67752;DHT22;54551;51.068;5.826;2023-05-07T13:07:01;23.30;99.90
67752;DHT22;54551;51.068;5.826;2023-05-07T13:09:28;23.40;99.90
67752;DHT22;54551;51.068;5.826;2023-05-07T13:11:55;23.50;99.90
67752;DHT22;54551;51.068;5.826;2023-05-07T13:14:21;23.60;99.90
67752;DHT22;54551;51.068;5.826;2023-05-07T13:16:47;23.70;99.90
67752;DHT22;54551;51.068;5.826;2023-05-07T13:19:13;23.80;99.90
67752;DHT22;54551;51.068;5.826;2023-05-07T13:21:39;23.90;99.90
67752;DHT22;54551;51.068;5.826;2023-05-07T13:24:06;24.00;99.90
67752;DHT22;54551;51.068;5.826;2023-05-07T13:26:32;23.90;99.90
67752;DHT22;54551;51.068;5.826;2023-05-07T13:28:58;24.00;99.90
67752;DHT22;54551;51.068;5.826;2023-05-07T13:31:24;24.00;99.90
67752;DHT22;54551;51.068;5.826;2023-05-07T13:33:50;24.00;99.90
67752;DHT22;54551;51.068;5.826;2023-05-07T13:36:18;24.10;99.90
67752;DHT22;54551;51.068;5.826;2023-05-07T13:38:44;24.10;99.90
67752;DHT22;54551;51.068;5.826;2023-05-07T13:41:10;24.10;99.90
67752;DHT22;54551;51.068;5.826;2023-05-07T13:43:35;24.10;99.90
67752;DHT22;54551;51.068;5.826;2023-05-07T13:46:01;24.10;99.90
67752;DHT22;54551;51.068;5.826;2023-05-07T13:48:27;24.20;99.90
67752;DHT22;54551;51.068;5.826;2023-05-07T13:50:54;24.20;99.90
67752;DHT22;54551;51.068;5.826;2023-05-07T13:53:20;24.20;99.90
67752;DHT22;54551;51.068;5.826;2023-05-07T13:55:46;24.20;99.90
67752;DHT22;54551;51.068;5.826;2023-05-07T13:58:12;24.20;99.90
67752;DHT22;54551;51.068;5.826;2023-05-07T14:00:38;24.20;99.90
67752;DHT22;54551;51.068;5.826;2023-05-07T14:03:05;24.20;99.90
67752;DHT22;54551;51.068;5.826;2023-05-07T14:05:31;24.10;99.90
67752;DHT22;54551;51.068;5.826;2023-05-07T14:07:57;24.00;99.90
67752;DHT22;54551;51.068;5.826;2023-05-07T14:10:24;23.90;99.90
67752;DHT22;54551;51.068;5.826;2023-05-07T14:12:50;23.90;99.90
67752;DHT22;54551;51.068;5.826;2023-05-07T14:15:16;23.90;99.90
67752;DHT22;54551;51.068;5.826;2023-05-07T14:17:43;23.70;99.90
67752;DHT22;54551;51.068;5.826;2023-05-07T14:20:09;23.70;99.90
67752;DHT22;54551;51.068;5.826;2023-05-07T14:22:36;23.70;99.90
67752;DHT22;54551;51.068;5.826;2023-05-07T14:25:02;23.80;99.90
67752;DHT22;54551;51.068;5.826;2023-05-07T14:27:28;23.70;99.90
67752;DHT22;54551;51.068;5.826;2023-05-07T14:29:54;23.70;99.90
67752;DHT22;54551;51.068;5.826;2023-05-07T14:32:21;23.70;99.90
67752;DHT22;54551;51.068;5.826;2023-05-07T14:34:47;23.60;99.90
67752;DHT22;54551;51.068;5.826;2023-05-07T14:37:13;23.60;99.90
67752;DHT22;54551;51.068;5.826;2023-05-07T14:39:39;23.70;99.90
67752;DHT22;54551;51.068;5.826;2023-05-07T14:42:05;23.60;99.90
67752;DHT22;54551;51.068;5.826;2023-05-07T14:44:36;23.70;99.90
67752;DHT22;54551;51.068;5.826;2023-05-07T14:47:02;23.70;99.90
67752;DHT22;54551;51.068;5.826;2023-05-07T14:49:28;23.80;99.90
67752;DHT22;54551;51.068;5.826;2023-05-07T14:51:57;23.80;99.90
67752;DHT22;54551;51.068;5.826;2023-05-07T14:54:25;23.80;99.90
67752;DHT22;54551;51.068;5.826;2023-05-07T14:56:51;23.70;99.90
67752;DHT22;54551;51.068;5.826;2023-05-07T14:59:19;23.70;99.90
67752;DHT22;54551;51.068;5.826;2023-05-07T15:01:49;23.60;99.90
67752;DHT22;54551;51.068;5.826;2023-05-07T15:04:15;23.70;99.90
67752;DHT22;54551;51.068;5.826;2023-05-07T15:06:42;23.70;99.90
67752;DHT22;54551;51.068;5.826;2023-05-07T15:09:08;23.80;99.90
67752;DHT22;54551;51.068;5.826;2023-05-07T15:11:34;23.90;99.90
67752;DHT22;54551;51.068;5.826;2023-05-07T15:14:02;23.80;99.90
67752;DHT22;54551;51.068;5.826;2023-05-07T15:16:28;23.80;99.90
67752;DHT22;54551;51.068;5.826;2023-05-07T15:18:54;23.80;99.90
67752;DHT22;54551;51.068;5.826;2023-05-07T15:21:20;23.80;99.90
67752;DHT22;54551;51.068;5.826;2023-05-07T15:23:46;23.70;99.90
67752;DHT22;54551;51.068;5.826;2023-05-07T15:26:12;23.70;99.90
67752;DHT22;54551;51.068;5.826;2023-05-07T15:28:38;23.60;99.90
67752;DHT22;54551;51.068;5.826;2023-05-07T15:31:05;23.60;99.90
67752;DHT22;54551;51.068;5.826;2023-05-07T15:33:32;23.50;99.90
67752;DHT22;54551;51.068;5.826;2023-05-07T15:35:58;23.40;99.90
67752;DHT22;54551;51.068;5.826;2023-05-07T15:38:25;23.40;99.90
67752;DHT22;54551;51.068;5.826;2023-05-07T15:40:52;23.40;99.90
67752;DHT22;54551;51.068;5.826;2023-05-07T15:43:19;23.40;99.90